Oceania — SQOC — position and weather

sailwx.info

Track history (hours):
 
Tides and Currents Weather Stations Pressure Air Temp Water Temp Dewpoint Dewpoint Depression Visibility Wind Speed Wind Dir Waves Ship Positions

Oceanographic research ship Oceania (Poland)

Detailed information on ship capabilities available from University of Delaware's Ocean Information Center and ARCUS's ALIAS (Arctic Logistics Information and Support) project.

Last reported at 2018-May-20 14:00 UTC. Time now 2018-May-20 13:58 UTC.
Position N 54°23' E 018°58'.

Length 49 m; beam 9 m.

Type: Sailing vessel. MMSI: 261000142.

Date/timePositionNaut miles runAvg speedWind from/ knotsBaromVisibWave heightAir tempDewpointWater temp
2018-May-20 14:00N 54°23' E 018°58'0 0.0
2018-May-20 13:30N 54°23' E 018°58'2 4.7
2018-May-20 13:01N 54°23' E 018°54'4 7.9
2018-May-20 12:30N 54°24' E 018°47'4 7.9
2018-May-20 12:00N 54°25' E 018°41'4 7.4
2018-May-20 11:30N 54°27' E 018°35'3 6.6
2018-May-20 11:00N 54°30' E 018°34'0 0.8
2018-May-20 10:30N 54°31' E 018°35'3 6.2
2018-May-20 10:00N 54°31' E 018°40'4 7.5
2018-May-20 09:30N 54°30' E 018°47'1 1.1
2018-May-20 09:00N 54°30' E 018°47'0 0.0
2018-May-20 08:30N 54°30' E 018°47'4 8.9
2018-May-20 08:00N 54°34' E 018°49'510.3
2018-May-20 07:30N 54°40' E 018°50'1 0.9
2018-May-20 06:55N 54°40' E 018°50'0 0.0
2018-May-20 06:28N 54°40' E 018°50'0 0.0
2018-May-20 05:55N 54°40' E 018°50'0 0.1
2018-May-20 05:30N 54°40' E 018°50'5 9.1
2018-May-20 05:01N 54°36' E 018°50'510.2
2018-May-20 04:31N 54°35' E 018°41'1 1.3
2018-May-20 04:00N 54°35' E 018°40'0 0.1
2018-May-20 03:30N 54°35' E 018°40'0 0.1
2018-May-20 03:00N 54°35' E 018°40'0 0.0
2018-May-20 02:30N 54°35' E 018°40'0 0.0
2018-May-20 02:00N 54°35' E 018°40'0 0.0
2018-May-20 01:30N 54°35' E 018°40'0 0.0
2018-May-20 01:00N 54°35' E 018°40'0 0.0
2018-May-20 00:30N 54°35' E 018°40'0 0.0
2018-May-20 00:00N 54°35' E 018°40'0 0.0
2018-May-19 23:30N 54°35' E 018°40'0 0.0
2018-May-19 23:00N 54°35' E 018°40'0 0.0
2018-May-19 22:30N 54°35' E 018°40'0 0.0
2018-May-19 22:00N 54°35' E 018°40'0 0.0
2018-May-19 21:30N 54°35' E 018°40'0 0.0
2018-May-19 21:00N 54°35' E 018°40'0 0.0
2018-May-19 20:30N 54°35' E 018°40'0 0.0
2018-May-19 20:00N 54°35' E 018°40'0 0.0
2018-May-19 19:30N 54°35' E 018°40'0 0.0
2018-May-19 19:00N 54°35' E 018°40'0 0.0
2018-May-19 18:30N 54°35' E 018°40'0 0.0
2018-May-19 18:00N 54°35' E 018°40'0 0.0
2018-May-19 17:30N 54°35' E 018°40'0 0.0
2018-May-19 17:00N 54°35' E 018°40'0 0.0
2018-May-19 16:30N 54°35' E 018°40'0 0.0
2018-May-19 16:00N 54°35' E 018°40'0 0.0
2018-May-19 15:30N 54°35' E 018°40'0 0.0
2018-May-19 15:00N 54°35' E 018°40'0 0.0
2018-May-19 14:30N 54°35' E 018°40'0 0.0
2018-May-19 14:00N 54°35' E 018°40'0 0.0
2018-May-19 13:30N 54°35' E 018°40'0 0.0
2018-May-19 13:00N 54°35' E 018°40'0 0.0
2018-May-19 12:30N 54°35' E 018°40'0 0.1
2018-May-19 12:00N 54°35' E 018°40'0 0.0
2018-May-19 11:30N 54°35' E 018°40'0 0.0
2018-May-19 11:00N 54°35' E 018°40'0 0.0
2018-May-19 10:30N 54°35' E 018°40'0 0.1
2018-May-19 10:00N 54°35' E 018°40'0 0.0
2018-May-19 09:30N 54°35' E 018°40'0 0.0
2018-May-19 09:00N 54°35' E 018°40'0 0.0
2018-May-19 08:29N 54°35' E 018°40'0 0.0
2018-May-19 07:59N 54°35' E 018°40'0 0.0
2018-May-19 07:29N 54°35' E 018°40'0 0.0
2018-May-19 06:59N 54°35' E 018°40'0 0.0
2018-May-19 06:29N 54°35' E 018°40'0 0.0
2018-May-19 05:59N 54°35' E 018°40'0 0.0
2018-May-19 05:29N 54°35' E 018°40'0 0.0
2018-May-19 04:59N 54°35' E 018°40'0 0.1
2018-May-19 04:29N 54°35' E 018°40'0 0.0
2018-May-19 03:59N 54°35' E 018°40'0 0.2
2018-May-19 03:29N 54°35' E 018°40'0 0.1
2018-May-19 02:59N 54°35' E 018°40'1 2.7
2018-May-19 02:30N 54°36' E 018°38'4 6.8
2018-May-19 01:58N 54°38' E 018°33'0 0.0
2018-May-19 01:28N 54°38' E 018°33'0 0.0
2018-May-19 00:58N 54°38' E 018°33'0 0.0
2018-May-19 00:28N 54°38' E 018°33'0 0.0
2018-May-18 23:58N 54°38' E 018°33'0 0.0
2018-May-18 23:28N 54°38' E 018°33'0 0.0
2018-May-18 22:58N 54°38' E 018°33'0 0.0
2018-May-18 22:28N 54°38' E 018°33'0 0.0
2018-May-18 21:58N 54°38' E 018°33'0 0.0
2018-May-18 21:28N 54°38' E 018°33'0 0.0
2018-May-18 20:58N 54°38' E 018°33'0 0.0
2018-May-18 20:28N 54°38' E 018°33'0 0.0
2018-May-18 19:58N 54°38' E 018°33'0 0.0
2018-May-18 19:28N 54°38' E 018°33'0 0.0
2018-May-18 18:58N 54°38' E 018°33'0 0.0
2018-May-18 18:28N 54°38' E 018°33'0 0.0
2018-May-18 17:58N 54°38' E 018°33'0 0.0
2018-May-18 17:28N 54°38' E 018°33'0 0.0
2018-May-18 16:58N 54°38' E 018°33'0 0.0
2018-May-18 16:28N 54°38' E 018°33'0 0.0
2018-May-18 15:58N 54°38' E 018°33'0 0.0
2018-May-18 15:28N 54°38' E 018°33'0 0.0
2018-May-18 14:58N 54°38' E 018°33'0 0.5
2018-May-18 14:30N 54°38' E 018°33'4 7.6
2018-May-18 14:00N 54°34' E 018°35'2 4.6
2018-May-18 13:29N 54°32' E 018°36'0 0.0
2018-May-18 12:59N 54°32' E 018°36'0 0.1
2018-May-18 12:29N 54°32' E 018°36'0 0.7
2018-May-18 12:00N 54°32' E 018°36'4 7.5
2018-May-18 11:30N 54°28' E 018°35'3 6.9
2018-May-18 11:00N 54°25' E 018°40'3 5.6
2018-May-18 10:30N 54°26' E 018°44'0 0.7
2018-May-18 10:00N 54°26' E 018°45'0 0.0
2018-May-18 09:30N 54°26' E 018°45'3 5.8
2018-May-18 09:00N 54°27' E 018°40'0 0.3
2018-May-18 08:28N 54°27' E 018°40'0 0.0
2018-May-18 07:58N 54°27' E 018°40'1 2.5
2018-May-18 07:30N 54°26' E 018°39'2 4.8
2018-May-18 07:00N 54°24' E 018°40'0 0.0
2018-May-18 06:30N 54°24' E 018°40'0 0.9
2018-May-18 06:01N 54°24' E 018°41'3 6.1
2018-May-18 05:30N 54°27' E 018°41'4 7.9
2018-May-18 05:00N 54°30' E 018°45'5 9.7
2018-May-18 04:30N 54°34' E 018°49'510.5
2018-May-18 04:00N 54°40' E 018°48'611.5
2018-May-18 03:30N 54°43' E 018°41'611.2
2018-May-18 03:00N 54°47' E 018°33'611.1
2018-May-18 02:30N 54°50' E 018°25'82 7.4
2018-May-17 15:25N 55°13' E 016°08'5 1.8
2018-May-17 12:24N 55°13' E 015°59'2 4.4
2018-May-17 12:00N 55°12' E 015°57'8 7.9
2018-May-17 10:57N 55°06' E 015°47'4 7.8
2018-May-17 10:29N 55°04' E 015°42'5 7.9
2018-May-17 09:49N 54°60' E 015°36'4 7.9
2018-May-17 09:16N 54°57' E 015°30'2 8.0
2018-May-17 08:58N 54°55' E 015°27'4 7.9
2018-May-17 08:27N 54°52' E 015°22'8 7.7
2018-May-17 07:27N 54°47' E 015°12'4 1.3
2018-May-17 04:43N 54°44' E 015°08'4 9.0
2018-May-17 04:16N 54°46' E 015°15'13 9.2
2018-May-17 02:54N 54°49' E 015°36'48 9.8
2018-May-16 22:00N 55°05' E 016°55'31 9.6
2018-May-16 18:44N 55°15' E 017°47'2 9.7
2018-May-16 18:30N 55°16' E 017°51'5 9.7
2018-May-16 18:00N 55°17' E 017°59'1 0.8
2018-May-16 17:02N 55°17' E 018°00'0 0.0
2018-May-16 16:56N 55°17' E 018°00'0 0.2
2018-May-16 16:23N 55°18' E 018°00'2 4.3
2018-May-16 16:00N 55°19' E 018°01'4 7.8
2018-May-16 15:30N 55°22' E 018°05'5 0.8
2018-May-16 09:54N 55°26' E 018°10'0 0.2
2018-May-16 09:30N 55°26' E 018°10'2 4.4
2018-May-16 08:57N 55°27' E 018°14'810.1
2018-May-16 08:06N 55°33' E 018°24'0 0.1
2018-May-16 07:37N 55°33' E 018°24'0 0.0
2018-May-16 07:28N 55°33' E 018°24'0 0.0
2018-May-16 06:46N 55°33' E 018°24'0 0.0
2018-May-16 06:28N 55°33' E 018°24'0 0.0
2018-May-16 05:55N 55°33' E 018°24'0 0.0
2018-May-16 05:28N 55°33' E 018°24'0 0.0
2018-May-16 03:28N 55°33' E 018°24'0 0.0
2018-May-15 22:42N 55°33' E 018°24'2 7.4
2018-May-15 22:30N 55°33' E 018°26'610.2
2018-May-15 21:53N 55°30' E 018°36'410.2
2018-May-15 21:30N 55°28' E 018°42'30 6.3
2018-May-15 16:48N 55°03' E 019°12'6 2.4
2018-May-15 14:18N 54°58' E 019°15'410.6
2018-May-15 13:58N 54°54' E 019°17'4 9.7
2018-May-15 13:30N 54°50' E 019°20'0 0.3
2018-May-15 12:53N 54°50' E 019°20'0 0.0
2018-May-15 12:29N 54°50' E 019°20'0 0.0
2018-May-15 11:14N 54°50' E 019°20'0 0.4
2018-May-15 11:00N 54°50' E 019°20'4 7.7
2018-May-15 10:30N 54°46' E 019°19'5 9.9
2018-May-15 09:59N 54°41' E 019°18'2 4.1
2018-May-15 09:29N 54°39' E 019°17'0 0.0
2018-May-15 08:44N 54°39' E 019°18'0 0.0
2018-May-15 08:29N 54°39' E 019°18'1 1.8
2018-May-15 08:00N 54°39' E 019°16'510.1
2018-May-15 07:30N 54°36' E 019°09'4 8.6
2018-May-15 07:00N 54°35' E 019°01'1 1.3
2018-May-15 06:29N 54°35' E 019°00'0 0.0
2018-May-15 05:59N 54°35' E 019°00'0 0.1
2018-May-15 05:30N 54°35' E 019°00'4 8.9
2018-May-15 05:00N 54°35' E 018°52'3 5.3
2018-May-15 04:26N 54°36' E 018°48'0 0.0
2018-May-15 03:59N 54°36' E 018°48'0 0.0
2018-May-15 03:30N 54°36' E 018°48'0 0.0
2018-May-15 02:59N 54°36' E 018°47'0 0.0
2018-May-15 02:29N 54°36' E 018°47'0 0.1
2018-May-15 01:59N 54°36' E 018°48'0 0.0
2018-May-15 01:29N 54°36' E 018°48'0 0.1
2018-May-15 00:56N 54°36' E 018°47'0 0.0
2018-May-15 00:29N 54°36' E 018°47'0 0.0
2018-May-14 23:59N 54°36' E 018°47'0 0.0
2018-May-14 23:29N 54°36' E 018°47'0 0.0
2018-May-14 22:59N 54°36' E 018°47'0 0.0
2018-May-14 22:29N 54°36' E 018°47'0 0.0
2018-May-14 21:56N 54°36' E 018°47'0 0.0
2018-May-14 21:29N 54°36' E 018°47'0 0.0
2018-May-14 20:53N 54°36' E 018°47'0 0.0
2018-May-14 20:29N 54°36' E 018°47'0 0.1
2018-May-14 19:58N 54°36' E 018°48'3 7.3
2018-May-14 19:30N 54°34' E 018°52'510.7
2018-May-14 19:00N 54°32' E 019°01'4 7.6
2018-May-14 18:28N 54°30' E 019°07'0 0.0
2018-May-14 17:52N 54°30' E 019°07'0 0.0
2018-May-14 17:28N 54°30' E 019°07'0 0.0
2018-May-14 16:58N 54°30' E 019°07'0 0.6
2018-May-14 16:30N 54°30' E 019°06'4 7.9
2018-May-14 16:00N 54°32' E 019°00'4 7.9
2018-May-14 15:30N 54°33' E 018°54'4 7.8
2018-May-14 15:00N 54°35' E 018°48'0 0.3
2018-May-14 14:29N 54°35' E 018°47'0 0.0
2018-May-14 13:59N 54°35' E 018°47'0 0.0
2018-May-14 13:29N 54°35' E 018°47'1 1.9
2018-May-14 13:00N 54°34' E 018°47'510.1
2018-May-14 12:30N 54°30' E 018°42'5 9.3
2018-May-14 12:00N 54°25' E 018°39'2 3.6
2018-May-14 11:29N 54°24' E 018°40'0 0.0
2018-May-14 10:59N 54°24' E 018°40'0 0.0
2018-May-14 10:29N 54°24' E 018°40'0 0.0
2018-May-14 09:59N 54°24' E 018°40'0 0.0
2018-May-14 09:29N 54°24' E 018°40'0 0.0
2018-May-14 08:59N 54°24' E 018°40'0 0.0
2018-May-14 08:29N 54°24' E 018°40'0 0.0
2018-May-14 07:59N 54°24' E 018°40'0 0.0
2018-May-14 07:29N 54°24' E 018°40'0 0.0
2018-May-14 06:59N 54°24' E 018°40'0 0.0
2018-May-14 06:26N 54°24' E 018°40'0 0.0
2018-May-14 05:59N 54°24' E 018°40'0 0.0
2018-May-14 05:23N 54°24' E 018°40'0 0.0
2018-May-14 04:56N 54°24' E 018°40'0 0.0
2018-May-14 04:29N 54°24' E 018°40'0 0.0
2018-May-14 03:59N 54°24' E 018°40'0 0.0
2018-May-14 03:29N 54°24' E 018°40'0 0.0
2018-May-14 02:56N 54°24' E 018°40'0 0.0
2018-May-14 02:29N 54°24' E 018°40'0 0.0
2018-May-14 01:59N 54°24' E 018°40'0 0.0
2018-May-14 01:29N 54°24' E 018°40'0 0.0
2018-May-14 00:59N 54°24' E 018°40'0 0.0
2018-May-14 00:29N 54°24' E 018°40'0 0.0
2018-May-13 23:59N 54°24' E 018°40'0 0.0
2018-May-13 23:26N 54°24' E 018°40'0 0.0
2018-May-13 22:59N 54°24' E 018°40'0 0.0
2018-May-13 22:23N 54°24' E 018°40'0 0.0
2018-May-13 21:56N 54°24' E 018°40'0 0.0
2018-May-13 21:29N 54°24' E 018°40'0 0.0
2018-May-13 20:59N 54°24' E 018°40'0 0.0
2018-May-13 20:23N 54°24' E 018°40'0 0.0
2018-May-13 19:59N 54°24' E 018°40'0 0.0
2018-May-13 19:29N 54°24' E 018°40'0 0.0
2018-May-13 18:59N 54°24' E 018°40'0 0.0
2018-May-13 18:29N 54°24' E 018°40'0 0.0
2018-May-13 17:59N 54°24' E 018°40'0 0.0
2018-May-13 17:29N 54°24' E 018°40'0 0.0
2018-May-13 16:56N 54°24' E 018°40'0 0.0
2018-May-13 16:26N 54°24' E 018°40'0 0.0
2018-May-13 15:56N 54°24' E 018°40'0 0.0
2018-May-13 15:29N 54°24' E 018°40'0 0.0
2018-May-13 14:59N 54°24' E 018°40'0 0.0
2018-May-13 14:23N 54°24' E 018°40'0 0.0
2018-May-13 13:56N 54°24' E 018°40'0 0.0
2018-May-13 13:29N 54°24' E 018°40'0 0.0
2018-May-13 12:56N 54°24' E 018°40'0 0.0
2018-May-13 12:29N 54°24' E 018°40'0 0.0
2018-May-13 11:56N 54°24' E 018°40'0 0.0
2018-May-13 11:26N 54°24' E 018°40'0 0.0
2018-May-13 10:59N 54°24' E 018°40'0 0.0
2018-May-13 10:29N 54°24' E 018°40'0 0.0
2018-May-13 09:59N 54°24' E 018°40'0 0.0
2018-May-13 08:56N 54°24' E 018°40'0 0.0
2018-May-13 08:29N 54°24' E 018°40'0 0.0
2018-May-13 07:59N 54°24' E 018°40'0 0.0
2018-May-13 07:29N 54°24' E 018°40'0 0.0
2018-May-13 06:59N 54°24' E 018°40'0 0.0
2018-May-13 06:26N 54°24' E 018°40'0 0.0
2018-May-13 05:59N 54°24' E 018°40'0 0.0
2018-May-13 05:23N 54°24' E 018°40'0 0.0
2018-May-13 04:56N 54°24' E 018°40'0 0.0
2018-May-13 04:29N 54°24' E 018°40'0 0.0
2018-May-13 03:59N 54°24' E 018°40'0 0.0
2018-May-13 03:29N 54°24' E 018°40'0 0.0
2018-May-13 02:59N 54°24' E 018°40'0 0.0
2018-May-13 02:29N 54°24' E 018°40'0 0.0
2018-May-13 01:59N 54°24' E 018°40'0 0.0
2018-May-13 01:26N 54°24' E 018°40'0 0.0
2018-May-13 00:59N 54°24' E 018°40'0 0.0
2018-May-13 00:29N 54°24' E 018°40'0 0.0
2018-May-12 23:59N 54°24' E 018°40'0 0.0
2018-May-12 23:29N 54°24' E 018°40'0 0.0
2018-May-12 22:59N 54°24' E 018°40'0 0.0
2018-May-12 22:29N 54°24' E 018°40'0 0.0
2018-May-12 21:59N 54°24' E 018°40'0 0.0
2018-May-12 21:29N 54°24' E 018°40'0 0.0
2018-May-12 20:59N 54°24' E 018°40'0 0.0
2018-May-12 20:29N 54°24' E 018°40'0 0.0
2018-May-12 19:59N 54°24' E 018°40'0 0.0
2018-May-12 19:29N 54°24' E 018°40'0 0.0
2018-May-12 18:59N 54°24' E 018°40'0 0.0
2018-May-12 18:29N 54°24' E 018°40'0 0.0
2018-May-12 17:59N 54°24' E 018°40'0 0.0
2018-May-12 17:29N 54°24' E 018°40'0 0.0
2018-May-12 16:59N 54°24' E 018°40'0 0.0
2018-May-12 16:29N 54°24' E 018°40'0 0.0
2018-May-12 15:59N 54°24' E 018°40'0 0.0
2018-May-12 15:26N 54°24' E 018°40'0 0.0
2018-May-12 14:59N 54°24' E 018°40'0 0.0
2018-May-12 14:29N 54°24' E 018°40'0 0.0
2018-May-12 13:59N 54°24' E 018°40'0 0.0
2018-May-12 13:26N 54°24' E 018°40'0 0.0
2018-May-12 12:56N 54°24' E 018°40'0 0.0
2018-May-12 12:29N 54°24' E 018°40'0 0.0
2018-May-12 11:59N 54°24' E 018°40'0 0.0
2018-May-12 11:29N 54°24' E 018°40'0 0.0
2018-May-12 10:59N 54°24' E 018°40'0 0.0
2018-May-12 10:23N 54°24' E 018°40'0 0.0
2018-May-12 09:56N 54°24' E 018°40'0 0.0
2018-May-12 09:29N 54°24' E 018°40'0 0.0
2018-May-12 08:59N 54°24' E 018°40'0 0.0
2018-May-12 08:29N 54°24' E 018°40'0 0.0
2018-May-12 07:59N 54°24' E 018°40'0 0.0
2018-May-12 07:29N 54°24' E 018°40'0 0.0
2018-May-12 06:59N 54°24' E 018°40'0 0.0
2018-May-12 06:29N 54°24' E 018°40'0 0.0
2018-May-12 05:59N 54°24' E 018°40'0 0.0
2018-May-12 05:29N 54°24' E 018°40'0 0.0
2018-May-12 04:59N 54°24' E 018°40'0 0.0
2018-May-12 04:29N 54°24' E 018°40'0 0.0
2018-May-12 03:59N 54°24' E 018°40'0 0.0
2018-May-12 03:29N 54°24' E 018°40'0 0.0
2018-May-12 02:59N 54°24' E 018°40'0 0.0
2018-May-12 02:29N 54°24' E 018°40'0 0.0
2018-May-12 01:59N 54°24' E 018°40'0 0.0
2018-May-12 01:29N 54°24' E 018°40'0 0.0
2018-May-12 00:59N 54°24' E 018°40'0 0.0
2018-May-12 00:29N 54°24' E 018°40'0 0.0
2018-May-11 23:59N 54°24' E 018°40'0 0.0
2018-May-11 23:29N 54°24' E 018°40'0 0.0
2018-May-11 22:59N 54°24' E 018°40'0 0.0
2018-May-11 22:29N 54°24' E 018°40'0 0.0
2018-May-11 21:59N 54°24' E 018°40'0 0.0
2018-May-11 21:29N 54°24' E 018°40'0 0.0
2018-May-11 20:59N 54°24' E 018°40'0 0.0
2018-May-11 20:29N 54°24' E 018°40'0 0.0
2018-May-11 19:59N 54°24' E 018°40'0 0.0
2018-May-11 19:29N 54°24' E 018°40'0 0.0
2018-May-11 18:59N 54°24' E 018°40'0 0.0
2018-May-11 18:29N 54°24' E 018°40'0 0.0
2018-May-11 17:59N 54°24' E 018°40'0 0.0
2018-May-11 17:29N 54°24' E 018°40'0 0.0
2018-May-11 16:59N 54°24' E 018°40'0 0.0
2018-May-11 16:28N 54°24' E 018°40'0 0.0
2018-May-11 15:59N 54°24' E 018°40'0 0.0
2018-May-11 15:29N 54°24' E 018°40'0 0.0
2018-May-11 14:59N 54°24' E 018°40'0 0.0
2018-May-11 14:28N 54°24' E 018°40'0 0.0
2018-May-11 13:59N 54°24' E 018°40'0 0.0
2018-May-11 13:29N 54°24' E 018°40'0 0.0
2018-May-11 12:59N 54°24' E 018°40'0 0.0
2018-May-11 12:29N 54°24' E 018°40'0 0.0
2018-May-11 12:00N 54°24' E 018°40'0 0.0
2018-May-11 11:30N 54°24' E 018°40'0 0.0
2018-May-11 11:00N 54°24' E 018°40'0 0.0
2018-May-11 10:30N 54°24' E 018°40'0 0.0
2018-May-11 10:00N 54°24' E 018°40'0 0.0
2018-May-11 09:30N 54°24' E 018°40'0 0.0
2018-May-11 09:00N 54°24' E 018°40'0 0.0
2018-May-11 08:30N 54°24' E 018°40'0 0.0
2018-May-11 08:00N 54°24' E 018°40'0 0.0
2018-May-11 07:30N 54°24' E 018°40'0 0.0
2018-May-11 07:00N 54°24' E 018°40'0 0.0
2018-May-11 06:30N 54°24' E 018°40'0 0.0
2018-May-11 06:00N 54°24' E 018°40'0 0.0
2018-May-11 05:30N 54°24' E 018°40'0 0.6
2018-May-11 05:00N 54°24' E 018°41'3 5.3
2018-May-11 04:30N 54°26' E 018°39'0 0.1
2018-May-11 03:58N 54°26' E 018°39'0 0.0
2018-May-11 03:28N 54°26' E 018°39'0 0.0
2018-May-11 02:58N 54°26' E 018°39'0 0.0
2018-May-11 02:28N 54°26' E 018°39'0 0.0
2018-May-11 01:58N 54°26' E 018°39'0 0.0
2018-May-11 01:28N 54°26' E 018°39'0 0.0
2018-May-11 00:58N 54°26' E 018°39'0 0.0
2018-May-11 00:28N 54°26' E 018°39'0 0.0
2018-May-10 23:58N 54°26' E 018°39'0 0.0
2018-May-10 23:28N 54°26' E 018°39'0 0.0
2018-May-10 22:58N 54°26' E 018°39'0 0.0
2018-May-10 22:28N 54°26' E 018°39'0 0.0
2018-May-10 21:58N 54°26' E 018°39'0 0.0
2018-May-10 21:28N 54°26' E 018°39'0 0.0
2018-May-10 20:58N 54°26' E 018°39'0 0.0
2018-May-10 20:28N 54°26' E 018°39'0 0.0
2018-May-10 19:58N 54°26' E 018°39'0 0.0
2018-May-10 19:28N 54°26' E 018°39'0 0.0
2018-May-10 18:58N 54°26' E 018°39'0 0.0
2018-May-10 18:28N 54°26' E 018°39'0 0.0
2018-May-10 17:58N 54°26' E 018°39'0 0.0
2018-May-10 17:28N 54°26' E 018°39'1 2.8
2018-May-10 17:00N 54°26' E 018°41'510.3
2018-May-10 16:30N 54°25' E 018°50'510.2
2018-May-10 16:00N 54°25' E 018°58'510.1
2018-May-10 15:30N 54°25' E 019°07'510.3
2018-May-10 15:00N 54°25' E 019°16'3 6.7
2018-May-10 14:29N 54°25' E 019°22'3 6.7
2018-May-10 14:00N 54°24' E 019°17'  
Track history (hours):
 
Tides and Currents Weather Stations Pressure Air Temp Water Temp Dewpoint Dewpoint Depression Visibility Wind Speed Wind Dir Waves Ship Positions

Oceanographic research ship Oceania (Poland)

Detailed information on ship capabilities available from University of Delaware's Ocean Information Center and ARCUS's ALIAS (Arctic Logistics Information and Support) project.

Last reported at 2018-May-20 14:00 UTC. Time now 2018-May-20 13:58 UTC.
Position N 54°23' E 018°58'.

Length 49 m; beam 9 m.

Type: Sailing vessel. MMSI: 261000142.

Date/timePositionNaut miles runAvg speedWind from/ knotsBaromVisibWave heightAir tempDewpointWater temp
2018-May-20 14:00N 54°23' E 018°58'0 0.0
2018-May-20 13:30N 54°23' E 018°58'2 4.7
2018-May-20 13:01N 54°23' E 018°54'4 7.9
2018-May-20 12:30N 54°24' E 018°47'4 7.9
2018-May-20 12:00N 54°25' E 018°41'4 7.4
2018-May-20 11:30N 54°27' E 018°35'3 6.6
2018-May-20 11:00N 54°30' E 018°34'0 0.8
2018-May-20 10:30N 54°31' E 018°35'3 6.2
2018-May-20 10:00N 54°31' E 018°40'4 7.5
2018-May-20 09:30N 54°30' E 018°47'1 1.1
2018-May-20 09:00N 54°30' E 018°47'0 0.0
2018-May-20 08:30N 54°30' E 018°47'4 8.9
2018-May-20 08:00N 54°34' E 018°49'510.3
2018-May-20 07:30N 54°40' E 018°50'1 0.9
2018-May-20 06:55N 54°40' E 018°50'0 0.0
2018-May-20 06:28N 54°40' E 018°50'0 0.0
2018-May-20 05:55N 54°40' E 018°50'0 0.1
2018-May-20 05:30N 54°40' E 018°50'5 9.1
2018-May-20 05:01N 54°36' E 018°50'510.2
2018-May-20 04:31N 54°35' E 018°41'1 1.3
2018-May-20 04:00N 54°35' E 018°40'0 0.1
2018-May-20 03:30N 54°35' E 018°40'0 0.1
2018-May-20 03:00N 54°35' E 018°40'0 0.0
2018-May-20 02:30N 54°35' E 018°40'0 0.0
2018-May-20 02:00N 54°35' E 018°40'0 0.0
2018-May-20 01:30N 54°35' E 018°40'0 0.0
2018-May-20 01:00N 54°35' E 018°40'0 0.0
2018-May-20 00:30N 54°35' E 018°40'0 0.0
2018-May-20 00:00N 54°35' E 018°40'0 0.0
2018-May-19 23:30N 54°35' E 018°40'0 0.0
2018-May-19 23:00N 54°35' E 018°40'0 0.0
2018-May-19 22:30N 54°35' E 018°40'0 0.0
2018-May-19 22:00N 54°35' E 018°40'0 0.0
2018-May-19 21:30N 54°35' E 018°40'0 0.0
2018-May-19 21:00N 54°35' E 018°40'0 0.0
2018-May-19 20:30N 54°35' E 018°40'0 0.0
2018-May-19 20:00N 54°35' E 018°40'0 0.0
2018-May-19 19:30N 54°35' E 018°40'0 0.0
2018-May-19 19:00N 54°35' E 018°40'0 0.0
2018-May-19 18:30N 54°35' E 018°40'0 0.0
2018-May-19 18:00N 54°35' E 018°40'0 0.0
2018-May-19 17:30N 54°35' E 018°40'0 0.0
2018-May-19 17:00N 54°35' E 018°40'0 0.0
2018-May-19 16:30N 54°35' E 018°40'0 0.0
2018-May-19 16:00N 54°35' E 018°40'0 0.0
2018-May-19 15:30N 54°35' E 018°40'0 0.0
2018-May-19 15:00N 54°35' E 018°40'0 0.0
2018-May-19 14:30N 54°35' E 018°40'0 0.0
2018-May-19 14:00N 54°35' E 018°40'0 0.0
2018-May-19 13:30N 54°35' E 018°40'0 0.0
2018-May-19 13:00N 54°35' E 018°40'0 0.0
2018-May-19 12:30N 54°35' E 018°40'0 0.1
2018-May-19 12:00N 54°35' E 018°40'0 0.0
2018-May-19 11:30N 54°35' E 018°40'0 0.0
2018-May-19 11:00N 54°35' E 018°40'0 0.0
2018-May-19 10:30N 54°35' E 018°40'0 0.1
2018-May-19 10:00N 54°35' E 018°40'0 0.0
2018-May-19 09:30N 54°35' E 018°40'0 0.0
2018-May-19 09:00N 54°35' E 018°40'0 0.0
2018-May-19 08:29N 54°35' E 018°40'0 0.0
2018-May-19 07:59N 54°35' E 018°40'0 0.0
2018-May-19 07:29N 54°35' E 018°40'0 0.0
2018-May-19 06:59N 54°35' E 018°40'0 0.0
2018-May-19 06:29N 54°35' E 018°40'0 0.0
2018-May-19 05:59N 54°35' E 018°40'0 0.0
2018-May-19 05:29N 54°35' E 018°40'0 0.0
2018-May-19 04:59N 54°35' E 018°40'0 0.1
2018-May-19 04:29N 54°35' E 018°40'0 0.0
2018-May-19 03:59N 54°35' E 018°40'0 0.2
2018-May-19 03:29N 54°35' E 018°40'0 0.1
2018-May-19 02:59N 54°35' E 018°40'1 2.7
2018-May-19 02:30N 54°36' E 018°38'4 6.8
2018-May-19 01:58N 54°38' E 018°33'0 0.0
2018-May-19 01:28N 54°38' E 018°33'0 0.0
2018-May-19 00:58N 54°38' E 018°33'0 0.0
2018-May-19 00:28N 54°38' E 018°33'0 0.0
2018-May-18 23:58N 54°38' E 018°33'0 0.0
2018-May-18 23:28N 54°38' E 018°33'0 0.0
2018-May-18 22:58N 54°38' E 018°33'0 0.0
2018-May-18 22:28N 54°38' E 018°33'0 0.0
2018-May-18 21:58N 54°38' E 018°33'0 0.0
2018-May-18 21:28N 54°38' E 018°33'0 0.0
2018-May-18 20:58N 54°38' E 018°33'0 0.0
2018-May-18 20:28N 54°38' E 018°33'0 0.0
2018-May-18 19:58N 54°38' E 018°33'0 0.0
2018-May-18 19:28N 54°38' E 018°33'0 0.0
2018-May-18 18:58N 54°38' E 018°33'0 0.0
2018-May-18 18:28N 54°38' E 018°33'0 0.0
2018-May-18 17:58N 54°38' E 018°33'0 0.0
2018-May-18 17:28N 54°38' E 018°33'0 0.0
2018-May-18 16:58N 54°38' E 018°33'0 0.0
2018-May-18 16:28N 54°38' E 018°33'0 0.0
2018-May-18 15:58N 54°38' E 018°33'0 0.0
2018-May-18 15:28N 54°38' E 018°33'0 0.0
2018-May-18 14:58N 54°38' E 018°33'0 0.5
2018-May-18 14:30N 54°38' E 018°33'4 7.6
2018-May-18 14:00N 54°34' E 018°35'2 4.6
2018-May-18 13:29N 54°32' E 018°36'0 0.0
2018-May-18 12:59N 54°32' E 018°36'0 0.1
2018-May-18 12:29N 54°32' E 018°36'0 0.7
2018-May-18 12:00N 54°32' E 018°36'4 7.5
2018-May-18 11:30N 54°28' E 018°35'3 6.9
2018-May-18 11:00N 54°25' E 018°40'3 5.6
2018-May-18 10:30N 54°26' E 018°44'0 0.7
2018-May-18 10:00N 54°26' E 018°45'0 0.0
2018-May-18 09:30N 54°26' E 018°45'3 5.8
2018-May-18 09:00N 54°27' E 018°40'0 0.3
2018-May-18 08:28N 54°27' E 018°40'0 0.0
2018-May-18 07:58N 54°27' E 018°40'1 2.5
2018-May-18 07:30N 54°26' E 018°39'2 4.8
2018-May-18 07:00N 54°24' E 018°40'0 0.0
2018-May-18 06:30N 54°24' E 018°40'0 0.9
2018-May-18 06:01N 54°24' E 018°41'3 6.1
2018-May-18 05:30N 54°27' E 018°41'4 7.9
2018-May-18 05:00N 54°30' E 018°45'5 9.7
2018-May-18 04:30N 54°34' E 018°49'510.5
2018-May-18 04:00N 54°40' E 018°48'611.5
2018-May-18 03:30N 54°43' E 018°41'611.2
2018-May-18 03:00N 54°47' E 018°33'611.1
2018-May-18 02:30N 54°50' E 018°25'82 7.4
2018-May-17 15:25N 55°13' E 016°08'5 1.8
2018-May-17 12:24N 55°13' E 015°59'2 4.4
2018-May-17 12:00N 55°12' E 015°57'8 7.9
2018-May-17 10:57N 55°06' E 015°47'4 7.8
2018-May-17 10:29N 55°04' E 015°42'5 7.9
2018-May-17 09:49N 54°60' E 015°36'4 7.9
2018-May-17 09:16N 54°57' E 015°30'2 8.0
2018-May-17 08:58N 54°55' E 015°27'4 7.9
2018-May-17 08:27N 54°52' E 015°22'8 7.7
2018-May-17 07:27N 54°47' E 015°12'4 1.3
2018-May-17 04:43N 54°44' E 015°08'4 9.0
2018-May-17 04:16N 54°46' E 015°15'13 9.2
2018-May-17 02:54N 54°49' E 015°36'48 9.8
2018-May-16 22:00N 55°05' E 016°55'31 9.6
2018-May-16 18:44N 55°15' E 017°47'2 9.7
2018-May-16 18:30N 55°16' E 017°51'5 9.7
2018-May-16 18:00N 55°17' E 017°59'1 0.8
2018-May-16 17:02N 55°17' E 018°00'0 0.0
2018-May-16 16:56N 55°17' E 018°00'0 0.2
2018-May-16 16:23N 55°18' E 018°00'2 4.3
2018-May-16 16:00N 55°19' E 018°01'4 7.8
2018-May-16 15:30N 55°22' E 018°05'5 0.8
2018-May-16 09:54N 55°26' E 018°10'0 0.2
2018-May-16 09:30N 55°26' E 018°10'2 4.4
2018-May-16 08:57N 55°27' E 018°14'810.1
2018-May-16 08:06N 55°33' E 018°24'0 0.1
2018-May-16 07:37N 55°33' E 018°24'0 0.0
2018-May-16 07:28N 55°33' E 018°24'0 0.0
2018-May-16 06:46N 55°33' E 018°24'0 0.0
2018-May-16 06:28N 55°33' E 018°24'0 0.0
2018-May-16 05:55N 55°33' E 018°24'0 0.0
2018-May-16 05:28N 55°33' E 018°24'0 0.0
2018-May-16 03:28N 55°33' E 018°24'0 0.0
2018-May-15 22:42N 55°33' E 018°24'2 7.4
2018-May-15 22:30N 55°33' E 018°26'610.2
2018-May-15 21:53N 55°30' E 018°36'410.2
2018-May-15 21:30N 55°28' E 018°42'30 6.3
2018-May-15 16:48N 55°03' E 019°12'6 2.4
2018-May-15 14:18N 54°58' E 019°15'410.6
2018-May-15 13:58N 54°54' E 019°17'4 9.7
2018-May-15 13:30N 54°50' E 019°20'0 0.3
2018-May-15 12:53N 54°50' E 019°20'0 0.0
2018-May-15 12:29N 54°50' E 019°20'0 0.0
2018-May-15 11:14N 54°50' E 019°20'0 0.4
2018-May-15 11:00N 54°50' E 019°20'4 7.7
2018-May-15 10:30N 54°46' E 019°19'5 9.9
2018-May-15 09:59N 54°41' E 019°18'2 4.1
2018-May-15 09:29N 54°39' E 019°17'0 0.0
2018-May-15 08:44N 54°39' E 019°18'0 0.0
2018-May-15 08:29N 54°39' E 019°18'1 1.8
2018-May-15 08:00N 54°39' E 019°16'510.1
2018-May-15 07:30N 54°36' E 019°09'4 8.6
2018-May-15 07:00N 54°35' E 019°01'1 1.3
2018-May-15 06:29N 54°35' E 019°00'0 0.0
2018-May-15 05:59N 54°35' E 019°00'0 0.1
2018-May-15 05:30N 54°35' E 019°00'4 8.9
2018-May-15 05:00N 54°35' E 018°52'3 5.3
2018-May-15 04:26N 54°36' E 018°48'0 0.0
2018-May-15 03:59N 54°36' E 018°48'0 0.0
2018-May-15 03:30N 54°36' E 018°48'0 0.0
2018-May-15 02:59N 54°36' E 018°47'0 0.0
2018-May-15 02:29N 54°36' E 018°47'0 0.1
2018-May-15 01:59N 54°36' E 018°48'0 0.0
2018-May-15 01:29N 54°36' E 018°48'0 0.1
2018-May-15 00:56N 54°36' E 018°47'0 0.0
2018-May-15 00:29N 54°36' E 018°47'0 0.0
2018-May-14 23:59N 54°36' E 018°47'0 0.0
2018-May-14 23:29N 54°36' E 018°47'0 0.0
2018-May-14 22:59N 54°36' E 018°47'0 0.0
2018-May-14 22:29N 54°36' E 018°47'0 0.0
2018-May-14 21:56N 54°36' E 018°47'0 0.0
2018-May-14 21:29N 54°36' E 018°47'0 0.0
2018-May-14 20:53N 54°36' E 018°47'0 0.0
2018-May-14 20:29N 54°36' E 018°47'0 0.1
2018-May-14 19:58N 54°36' E 018°48'3 7.3
2018-May-14 19:30N 54°34' E 018°52'510.7
2018-May-14 19:00N 54°32' E 019°01'4 7.6
2018-May-14 18:28N 54°30' E 019°07'0 0.0
2018-May-14 17:52N 54°30' E 019°07'0 0.0
2018-May-14 17:28N 54°30' E 019°07'0 0.0
2018-May-14 16:58N 54°30' E 019°07'0 0.6
2018-May-14 16:30N 54°30' E 019°06'4 7.9
2018-May-14 16:00N 54°32' E 019°00'4 7.9
2018-May-14 15:30N 54°33' E 018°54'4 7.8
2018-May-14 15:00N 54°35' E 018°48'0 0.3
2018-May-14 14:29N 54°35' E 018°47'0 0.0
2018-May-14 13:59N 54°35' E 018°47'0 0.0
2018-May-14 13:29N 54°35' E 018°47'1 1.9
2018-May-14 13:00N 54°34' E 018°47'510.1
2018-May-14 12:30N 54°30' E 018°42'5 9.3
2018-May-14 12:00N 54°25' E 018°39'2 3.6
2018-May-14 11:29N 54°24' E 018°40'0 0.0
2018-May-14 10:59N 54°24' E 018°40'0 0.0
2018-May-14 10:29N 54°24' E 018°40'0 0.0
2018-May-14 09:59N 54°24' E 018°40'0 0.0
2018-May-14 09:29N 54°24' E 018°40'0 0.0
2018-May-14 08:59N 54°24' E 018°40'0 0.0
2018-May-14 08:29N 54°24' E 018°40'0 0.0
2018-May-14 07:59N 54°24' E 018°40'0 0.0
2018-May-14 07:29N 54°24' E 018°40'0 0.0
2018-May-14 06:59N 54°24' E 018°40'0 0.0
2018-May-14 06:26N 54°24' E 018°40'0 0.0
2018-May-14 05:59N 54°24' E 018°40'0 0.0
2018-May-14 05:23N 54°24' E 018°40'0 0.0
2018-May-14 04:56N 54°24' E 018°40'0 0.0
2018-May-14 04:29N 54°24' E 018°40'0 0.0
2018-May-14 03:59N 54°24' E 018°40'0 0.0
2018-May-14 03:29N 54°24' E 018°40'0 0.0
2018-May-14 02:56N 54°24' E 018°40'0 0.0
2018-May-14 02:29N 54°24' E 018°40'0 0.0
2018-May-14 01:59N 54°24' E 018°40'0 0.0
2018-May-14 01:29N 54°24' E 018°40'0 0.0
2018-May-14 00:59N 54°24' E 018°40'0 0.0
2018-May-14 00:29N 54°24' E 018°40'0 0.0
2018-May-13 23:59N 54°24' E 018°40'0 0.0
2018-May-13 23:26N 54°24' E 018°40'0 0.0
2018-May-13 22:59N 54°24' E 018°40'0 0.0
2018-May-13 22:23N 54°24' E 018°40'0 0.0
2018-May-13 21:56N 54°24' E 018°40'0 0.0
2018-May-13 21:29N 54°24' E 018°40'0 0.0
2018-May-13 20:59N 54°24' E 018°40'0 0.0
2018-May-13 20:23N 54°24' E 018°40'0 0.0
2018-May-13 19:59N 54°24' E 018°40'0 0.0
2018-May-13 19:29N 54°24' E 018°40'0 0.0
2018-May-13 18:59N 54°24' E 018°40'0 0.0
2018-May-13 18:29N 54°24' E 018°40'0 0.0
2018-May-13 17:59N 54°24' E 018°40'0 0.0
2018-May-13 17:29N 54°24' E 018°40'0 0.0
2018-May-13 16:56N 54°24' E 018°40'0 0.0
2018-May-13 16:26N 54°24' E 018°40'0 0.0
2018-May-13 15:56N 54°24' E 018°40'0 0.0
2018-May-13 15:29N 54°24' E 018°40'0 0.0
2018-May-13 14:59N 54°24' E 018°40'0 0.0
2018-May-13 14:23N 54°24' E 018°40'0 0.0
2018-May-13 13:56N 54°24' E 018°40'0 0.0
2018-May-13 13:29N 54°24' E 018°40'0 0.0
2018-May-13 12:56N 54°24' E 018°40'0 0.0
2018-May-13 12:29N 54°24' E 018°40'0 0.0
2018-May-13 11:56N 54°24' E 018°40'0 0.0
2018-May-13 11:26N 54°24' E 018°40'0 0.0
2018-May-13 10:59N 54°24' E 018°40'0 0.0
2018-May-13 10:29N 54°24' E 018°40'0 0.0
2018-May-13 09:59N 54°24' E 018°40'0 0.0
2018-May-13 08:56N 54°24' E 018°40'0 0.0
2018-May-13 08:29N 54°24' E 018°40'0 0.0
2018-May-13 07:59N 54°24' E 018°40'0 0.0
2018-May-13 07:29N 54°24' E 018°40'0 0.0
2018-May-13 06:59N 54°24' E 018°40'0 0.0
2018-May-13 06:26N 54°24' E 018°40'0 0.0
2018-May-13 05:59N 54°24' E 018°40'0 0.0
2018-May-13 05:23N 54°24' E 018°40'0 0.0
2018-May-13 04:56N 54°24' E 018°40'0 0.0
2018-May-13 04:29N 54°24' E 018°40'0 0.0
2018-May-13 03:59N 54°24' E 018°40'0 0.0
2018-May-13 03:29N 54°24' E 018°40'0 0.0
2018-May-13 02:59N 54°24' E 018°40'0 0.0
2018-May-13 02:29N 54°24' E 018°40'0 0.0
2018-May-13 01:59N 54°24' E 018°40'0 0.0
2018-May-13 01:26N 54°24' E 018°40'0 0.0
2018-May-13 00:59N 54°24' E 018°40'0 0.0
2018-May-13 00:29N 54°24' E 018°40'0 0.0
2018-May-12 23:59N 54°24' E 018°40'0 0.0
2018-May-12 23:29N 54°24' E 018°40'0 0.0
2018-May-12 22:59N 54°24' E 018°40'0 0.0
2018-May-12 22:29N 54°24' E 018°40'0 0.0
2018-May-12 21:59N 54°24' E 018°40'0 0.0
2018-May-12 21:29N 54°24' E 018°40'0 0.0
2018-May-12 20:59N 54°24' E 018°40'0 0.0
2018-May-12 20:29N 54°24' E 018°40'0 0.0
2018-May-12 19:59N 54°24' E 018°40'0 0.0
2018-May-12 19:29N 54°24' E 018°40'0 0.0
2018-May-12 18:59N 54°24' E 018°40'0 0.0
2018-May-12 18:29N 54°24' E 018°40'0 0.0
2018-May-12 17:59N 54°24' E 018°40'0 0.0
2018-May-12 17:29N 54°24' E 018°40'0 0.0
2018-May-12 16:59N 54°24' E 018°40'0 0.0
2018-May-12 16:29N 54°24' E 018°40'0 0.0
2018-May-12 15:59N 54°24' E 018°40'0 0.0
2018-May-12 15:26N 54°24' E 018°40'0 0.0
2018-May-12 14:59N 54°24' E 018°40'0 0.0
2018-May-12 14:29N 54°24' E 018°40'0 0.0
2018-May-12 13:59N 54°24' E 018°40'0 0.0
2018-May-12 13:26N 54°24' E 018°40'0 0.0
2018-May-12 12:56N 54°24' E 018°40'0 0.0
2018-May-12 12:29N 54°24' E 018°40'0 0.0
2018-May-12 11:59N 54°24' E 018°40'0 0.0
2018-May-12 11:29N 54°24' E 018°40'0 0.0
2018-May-12 10:59N 54°24' E 018°40'0 0.0
2018-May-12 10:23N 54°24' E 018°40'0 0.0
2018-May-12 09:56N 54°24' E 018°40'0 0.0
2018-May-12 09:29N 54°24' E 018°40'0 0.0
2018-May-12 08:59N 54°24' E 018°40'0 0.0
2018-May-12 08:29N 54°24' E 018°40'0 0.0
2018-May-12 07:59N 54°24' E 018°40'0 0.0
2018-May-12 07:29N 54°24' E 018°40'0 0.0
2018-May-12 06:59N 54°24' E 018°40'0 0.0
2018-May-12 06:29N 54°24' E 018°40'0 0.0
2018-May-12 05:59N 54°24' E 018°40'0 0.0
2018-May-12 05:29N 54°24' E 018°40'0 0.0
2018-May-12 04:59N 54°24' E 018°40'0 0.0
2018-May-12 04:29N 54°24' E 018°40'0 0.0
2018-May-12 03:59N 54°24' E 018°40'0 0.0
2018-May-12 03:29N 54°24' E 018°40'0 0.0
2018-May-12 02:59N 54°24' E 018°40'0 0.0
2018-May-12 02:29N 54°24' E 018°40'0 0.0
2018-May-12 01:59N 54°24' E 018°40'0 0.0
2018-May-12 01:29N 54°24' E 018°40'0 0.0
2018-May-12 00:59N 54°24' E 018°40'0 0.0
2018-May-12 00:29N 54°24' E 018°40'0 0.0
2018-May-11 23:59N 54°24' E 018°40'0 0.0
2018-May-11 23:29N 54°24' E 018°40'0 0.0
2018-May-11 22:59N 54°24' E 018°40'0 0.0
2018-May-11 22:29N 54°24' E 018°40'0 0.0
2018-May-11 21:59N 54°24' E 018°40'0 0.0
2018-May-11 21:29N 54°24' E 018°40'0 0.0
2018-May-11 20:59N 54°24' E 018°40'0 0.0
2018-May-11 20:29N 54°24' E 018°40'0 0.0
2018-May-11 19:59N 54°24' E 018°40'0 0.0
2018-May-11 19:29N 54°24' E 018°40'0 0.0
2018-May-11 18:59N 54°24' E 018°40'0 0.0
2018-May-11 18:29N 54°24' E 018°40'0 0.0
2018-May-11 17:59N 54°24' E 018°40'0 0.0
2018-May-11 17:29N 54°24' E 018°40'0 0.0
2018-May-11 16:59N 54°24' E 018°40'0 0.0
2018-May-11 16:28N 54°24' E 018°40'0 0.0
2018-May-11 15:59N 54°24' E 018°40'0 0.0
2018-May-11 15:29N 54°24' E 018°40'0 0.0
2018-May-11 14:59N 54°24' E 018°40'0 0.0
2018-May-11 14:28N 54°24' E 018°40'0 0.0
2018-May-11 13:59N 54°24' E 018°40'0 0.0
2018-May-11 13:29N 54°24' E 018°40'0 0.0
2018-May-11 12:59N 54°24' E 018°40'0 0.0
2018-May-11 12:29N 54°24' E 018°40'0 0.0
2018-May-11 12:00N 54°24' E 018°40'0 0.0
2018-May-11 11:30N 54°24' E 018°40'0 0.0
2018-May-11 11:00N 54°24' E 018°40'0 0.0
2018-May-11 10:30N 54°24' E 018°40'0 0.0
2018-May-11 10:00N 54°24' E 018°40'0 0.0
2018-May-11 09:30N 54°24' E 018°40'0 0.0
2018-May-11 09:00N 54°24' E 018°40'0 0.0
2018-May-11 08:30N 54°24' E 018°40'0 0.0
2018-May-11 08:00N 54°24' E 018°40'0 0.0
2018-May-11 07:30N 54°24' E 018°40'0 0.0
2018-May-11 07:00N 54°24' E 018°40'0 0.0
2018-May-11 06:30N 54°24' E 018°40'0 0.0
2018-May-11 06:00N 54°24' E 018°40'0 0.0
2018-May-11 05:30N 54°24' E 018°40'0 0.6
2018-May-11 05:00N 54°24' E 018°41'3 5.3
2018-May-11 04:30N 54°26' E 018°39'0 0.1
2018-May-11 03:58N 54°26' E 018°39'0 0.0
2018-May-11 03:28N 54°26' E 018°39'0 0.0
2018-May-11 02:58N 54°26' E 018°39'0 0.0
2018-May-11 02:28N 54°26' E 018°39'0 0.0
2018-May-11 01:58N 54°26' E 018°39'0 0.0
2018-May-11 01:28N 54°26' E 018°39'0 0.0
2018-May-11 00:58N 54°26' E 018°39'0 0.0
2018-May-11 00:28N 54°26' E 018°39'0 0.0
2018-May-10 23:58N 54°26' E 018°39'0 0.0
2018-May-10 23:28N 54°26' E 018°39'0 0.0
2018-May-10 22:58N 54°26' E 018°39'0 0.0
2018-May-10 22:28N 54°26' E 018°39'0 0.0
2018-May-10 21:58N 54°26' E 018°39'0 0.0
2018-May-10 21:28N 54°26' E 018°39'0 0.0
2018-May-10 20:58N 54°26' E 018°39'0 0.0
2018-May-10 20:28N 54°26' E 018°39'0 0.0
2018-May-10 19:58N 54°26' E 018°39'0 0.0
2018-May-10 19:28N 54°26' E 018°39'0 0.0
2018-May-10 18:58N 54°26' E 018°39'0 0.0
2018-May-10 18:28N 54°26' E 018°39'0 0.0
2018-May-10 17:58N 54°26' E 018°39'0 0.0
2018-May-10 17:28N 54°26' E 018°39'1 2.8
2018-May-10 17:00N 54°26' E 018°41'510.3
2018-May-10 16:30N 54°25' E 018°50'510.2
2018-May-10 16:00N 54°25' E 018°58'510.1
2018-May-10 15:30N 54°25' E 019°07'510.3
2018-May-10 15:00N 54°25' E 019°16'3 6.7
2018-May-10 14:29N 54°25' E 019°22'3 6.7
2018-May-10 14:00N 54°24' E 019°17'  

Dump ship's entire track history